sensor_id;sensor_type;location;lat;lon;timestamp;temperature;humidity
43665;DHT22;29263;48.172;11.484;2023-11-21T00:01:54;7.00;99.90
43665;DHT22;29263;48.172;11.484;2023-11-21T00:04:20;7.00;99.90
43665;DHT22;29263;48.172;11.484;2023-11-21T00:06:45;7.00;99.90
43665;DHT22;29263;48.172;11.484;2023-11-21T00:09:13;7.00;99.90
43665;DHT22;29263;48.172;11.484;2023-11-21T00:11:41;7.00;99.90
43665;DHT22;29263;48.172;11.484;2023-11-21T00:14:06;7.00;99.90
43665;DHT22;29263;48.172;11.484;2023-11-21T00:16:32;7.00;99.90
43665;DHT22;29263;48.172;11.484;2023-11-21T00:18:57;7.00;99.90
43665;DHT22;29263;48.172;11.484;2023-11-21T00:21:23;7.00;99.90
43665;DHT22;29263;48.172;11.484;2023-11-21T00:23:49;7.00;99.90
43665;DHT22;29263;48.172;11.484;2023-11-21T00:26:14;7.10;99.90
43665;DHT22;29263;48.172;11.484;2023-11-21T00:28:40;7.00;99.90
43665;DHT22;29263;48.172;11.484;2023-11-21T00:31:05;7.00;99.90
43665;DHT22;29263;48.172;11.484;2023-11-21T00:33:32;7.00;99.90
43665;DHT22;29263;48.172;11.484;2023-11-21T00:35:57;7.00;99.90
43665;DHT22;29263;48.172;11.484;2023-11-21T00:38:23;7.00;99.90
43665;DHT22;29263;48.172;11.484;2023-11-21T00:40:49;7.00;99.90
43665;DHT22;29263;48.172;11.484;2023-11-21T00:43:15;7.00;99.90
43665;DHT22;29263;48.172;11.484;2023-11-21T00:45:41;7.00;99.90
43665;DHT22;29263;48.172;11.484;2023-11-21T00:48:06;7.00;99.90
43665;DHT22;29263;48.172;11.484;2023-11-21T00:50:33;7.00;99.90
43665;DHT22;29263;48.172;11.484;2023-11-21T00:52:59;7.00;99.90
43665;DHT22;29263;48.172;11.484;2023-11-21T00:55:25;6.90;99.90
43665;DHT22;29263;48.172;11.484;2023-11-21T00:57:51;6.90;99.90
43665;DHT22;29263;48.172;11.484;2023-11-21T01:00:17;6.80;99.90
43665;DHT22;29263;48.172;11.484;2023-11-21T01:02:43;6.80;99.90
43665;DHT22;29263;48.172;11.484;2023-11-21T01:05:13;6.70;99.90
43665;DHT22;29263;48.172;11.484;2023-11-21T01:07:39;6.70;99.90
43665;DHT22;29263;48.172;11.484;2023-11-21T01:10:04;6.70;99.90
43665;DHT22;29263;48.172;11.484;2023-11-21T01:12:36;6.80;99.90
43665;DHT22;29263;48.172;11.484;2023-11-21T01:15:03;6.80;99.90
43665;DHT22;29263;48.172;11.484;2023-11-21T01:17:29;6.70;99.90
43665;DHT22;29263;48.172;11.484;2023-11-21T01:19:55;6.70;99.90
43665;DHT22;29263;48.172;11.484;2023-11-21T01:22:21;6.60;99.90
43665;DHT22;29263;48.172;11.484;2023-11-21T01:24:53;6.60;99.90
43665;DHT22;29263;48.172;11.484;2023-11-21T01:27:20;6.50;99.90
43665;DHT22;29263;48.172;11.484;2023-11-21T01:29:45;6.50;99.90
43665;DHT22;29263;48.172;11.484;2023-11-21T01:32:11;6.60;99.90
43665;DHT22;29263;48.172;11.484;2023-11-21T01:34:37;6.50;99.90
43665;DHT22;29263;48.172;11.484;2023-11-21T01:37:03;6.50;99.90
43665;DHT22;29263;48.172;11.484;2023-11-21T01:39:30;6.50;99.90
43665;DHT22;29263;48.172;11.484;2023-11-21T01:41:57;6.50;99.90
43665;DHT22;29263;48.172;11.484;2023-11-21T01:44:24;6.50;99.90
43665;DHT22;29263;48.172;11.484;2023-11-21T01:46:50;6.40;99.90
43665;DHT22;29263;48.172;11.484;2023-11-21T01:49:16;6.40;99.90
43665;DHT22;29263;48.172;11.484;2023-11-21T01:51:45;6.40;99.90
43665;DHT22;29263;48.172;11.484;2023-11-21T01:54:12;6.50;99.90
43665;DHT22;29263;48.172;11.484;2023-11-21T01:56:38;6.40;99.90
43665;DHT22;29263;48.172;11.484;2023-11-21T01:59:05;6.50;99.90
43665;DHT22;29263;48.172;11.484;2023-11-21T02:01:33;6.50;99.90
43665;DHT22;29263;48.172;11.484;2023-11-21T02:03:59;6.50;99.90
43665;DHT22;29263;48.172;11.484;2023-11-21T02:06:24;6.50;99.90
43665;DHT22;29263;48.172;11.484;2023-11-21T02:08:51;6.50;99.90
43665;DHT22;29263;48.172;11.484;2023-11-21T02:11:17;6.50;99.90
43665;DHT22;29263;48.172;11.484;2023-11-21T02:13:44;6.50;99.90
43665;DHT22;29263;48.172;11.484;2023-11-21T02:16:11;6.60;99.90
43665;DHT22;29263;48.172;11.484;2023-11-21T02:18:39;6.60;99.90
43665;DHT22;29263;48.172;11.484;2023-11-21T02:21:05;6.60;99.90
43665;DHT22;29263;48.172;11.484;2023-11-21T02:23:30;6.70;99.90
43665;DHT22;29263;48.172;11.484;2023-11-21T02:25:56;6.70;99.90
43665;DHT22;29263;48.172;11.484;2023-11-21T02:28:22;6.80;99.90
43665;DHT22;29263;48.172;11.484;2023-11-21T02:30:52;6.90;99.90
43665;DHT22;29263;48.172;11.484;2023-11-21T02:33:24;6.90;99.90
43665;DHT22;29263;48.172;11.484;2023-11-21T02:35:50;6.80;99.90
43665;DHT22;29263;48.172;11.484;2023-11-21T02:38:20;6.80;99.90
43665;DHT22;29263;48.172;11.484;2023-11-21T02:40:46;6.90;99.90
43665;DHT22;29263;48.172;11.484;2023-11-21T02:43:11;6.90;99.90
43665;DHT22;29263;48.172;11.484;2023-11-21T02:45:37;6.90;99.90
43665;DHT22;29263;48.172;11.484;2023-11-21T02:48:03;6.90;99.90
43665;DHT22;29263;48.172;11.484;2023-11-21T02:50:29;6.80;99.90
43665;DHT22;29263;48.172;11.484;2023-11-21T02:52:55;6.80;99.90
43665;DHT22;29263;48.172;11.484;2023-11-21T02:55:23;6.80;99.90
43665;DHT22;29263;48.172;11.484;2023-11-21T02:57:50;6.80;99.90
43665;DHT22;29263;48.172;11.484;2023-11-21T03:00:16;6.80;99.90
43665;DHT22;29263;48.172;11.484;2023-11-21T03:02:43;6.80;99.90
43665;DHT22;29263;48.172;11.484;2023-11-21T03:05:09;6.80;99.90
43665;DHT22;29263;48.172;11.484;2023-11-21T03:07:36;6.70;99.90
43665;DHT22;29263;48.172;11.484;2023-11-21T03:10:02;6.70;99.90
43665;DHT22;29263;48.172;11.484;2023-11-21T03:12:29;6.70;99.90
43665;DHT22;29263;48.172;11.484;2023-11-21T03:14:55;6.70;99.90
43665;DHT22;29263;48.172;11.484;2023-11-21T03:17:21;6.70;99.90
43665;DHT22;29263;48.172;11.484;2023-11-21T03:19:46;6.70;99.90
43665;DHT22;29263;48.172;11.484;2023-11-21T03:22:12;6.70;99.90
43665;DHT22;29263;48.172;11.484;2023-11-21T03:24:38;6.70;99.90
43665;DHT22;29263;48.172;11.484;2023-11-21T03:27:04;6.70;99.90
43665;DHT22;29263;48.172;11.484;2023-11-21T03:29:30;6.70;99.90
43665;DHT22;29263;48.172;11.484;2023-11-21T03:31:56;6.70;99.90
43665;DHT22;29263;48.172;11.484;2023-11-21T03:34:27;6.70;99.90
43665;DHT22;29263;48.172;11.484;2023-11-21T03:36:53;6.70;99.90
43665;DHT22;29263;48.172;11.484;2023-11-21T03:39:22;6.70;99.90
43665;DHT22;29263;48.172;11.484;2023-11-21T03:41:48;6.70;99.90
43665;DHT22;29263;48.172;11.484;2023-11-21T03:44:14;6.70;99.90
43665;DHT22;29263;48.172;11.484;2023-11-21T03:46:39;6.80;99.90
43665;DHT22;29263;48.172;11.484;2023-11-21T03:49:05;6.80;99.90
43665;DHT22;29263;48.172;11.484;2023-11-21T03:51:31;6.80;99.90
43665;DHT22;29263;48.172;11.484;2023-11-21T03:53:56;6.80;99.90
43665;DHT22;29263;48.172;11.484;2023-11-21T03:56:22;6.70;99.90
43665;DHT22;29263;48.172;11.484;2023-11-21T03:58:48;6.70;99.90
43665;DHT22;29263;48.172;11.484;2023-11-21T04:01:21;6.70;99.90
43665;DHT22;29263;48.172;11.484;2023-11-21T04:03:48;6.70;99.90
43665;DHT22;29263;48.172;11.484;2023-11-21T04:06:13;6.70;99.90
43665;DHT22;29263;48.172;11.484;2023-11-21T04:08:39;6.70;99.90
43665;DHT22;29263;48.172;11.484;2023-11-21T04:11:04;6.70;99.90
43665;DHT22;29263;48.172;11.484;2023-11-21T04:13:30;6.70;99.90
43665;DHT22;29263;48.172;11.484;2023-11-21T04:15:56;6.70;99.90
43665;DHT22;29263;48.172;11.484;2023-11-21T04:18:21;6.60;99.90
43665;DHT22;29263;48.172;11.484;2023-11-21T04:20:48;6.60;99.90
43665;DHT22;29263;48.172;11.484;2023-11-21T04:23:14;6.60;99.90
43665;DHT22;29263;48.172;11.484;2023-11-21T04:25:40;6.60;99.90
43665;DHT22;29263;48.172;11.484;2023-11-21T04:28:06;6.70;99.90
43665;DHT22;29263;48.172;11.484;2023-11-21T04:30:31;6.70;99.90
43665;DHT22;29263;48.172;11.484;2023-11-21T04:32:58;6.70;99.90
43665;DHT22;29263;48.172;11.484;2023-11-21T04:35:24;6.80;99.90
43665;DHT22;29263;48.172;11.484;2023-11-21T04:37:49;6.90;99.90
43665;DHT22;29263;48.172;11.484;2023-11-21T04:40:16;6.90;99.90
43665;DHT22;29263;48.172;11.484;2023-11-21T04:42:42;6.90;99.90
43665;DHT22;29263;48.172;11.484;2023-11-21T04:45:08;7.00;99.90
43665;DHT22;29263;48.172;11.484;2023-11-21T04:47:35;6.90;99.90
43665;DHT22;29263;48.172;11.484;2023-11-21T04:50:02;6.90;99.90
43665;DHT22;29263;48.172;11.484;2023-11-21T04:52:28;7.00;99.90
43665;DHT22;29263;48.172;11.484;2023-11-21T04:54:54;6.90;99.90
43665;DHT22;29263;48.172;11.484;2023-11-21T04:57:21;6.90;99.90
43665;DHT22;29263;48.172;11.484;2023-11-21T04:59:48;7.00;99.90
43665;DHT22;29263;48.172;11.484;2023-11-21T05:02:14;7.00;99.90
43665;DHT22;29263;48.172;11.484;2023-11-21T05:04:39;7.00;99.90
43665;DHT22;29263;48.172;11.484;2023-11-21T05:07:05;6.90;99.90
43665;DHT22;29263;48.172;11.484;2023-11-21T05:09:31;6.90;99.90
43665;DHT22;29263;48.172;11.484;2023-11-21T05:11:58;6.90;99.90
43665;DHT22;29263;48.172;11.484;2023-11-21T05:14:23;6.90;99.90
43665;DHT22;29263;48.172;11.484;2023-11-21T05:16:49;6.90;99.90
43665;DHT22;29263;48.172;11.484;2023-11-21T05:19:16;6.90;99.90
43665;DHT22;29263;48.172;11.484;2023-11-21T05:21:41;6.90;99.90
43665;DHT22;29263;48.172;11.484;2023-11-21T05:24:07;6.80;99.90
43665;DHT22;29263;48.172;11.484;2023-11-21T05:26:33;6.80;99.90
43665;DHT22;29263;48.172;11.484;2023-11-21T05:28:58;6.80;99.90
43665;DHT22;29263;48.172;11.484;2023-11-21T05:31:24;6.80;99.90
43665;DHT22;29263;48.172;11.484;2023-11-21T05:33:50;6.70;99.90
43665;DHT22;29263;48.172;11.484;2023-11-21T05:36:15;6.70;99.90
43665;DHT22;29263;48.172;11.484;2023-11-21T05:38:41;6.70;99.90
43665;DHT22;29263;48.172;11.484;2023-11-21T05:41:07;6.80;99.90
43665;DHT22;29263;48.172;11.484;2023-11-21T05:43:33;6.80;99.90
43665;DHT22;29263;48.172;11.484;2023-11-21T05:46:01;6.80;99.90
43665;DHT22;29263;48.172;11.484;2023-11-21T05:48:26;6.80;99.90
43665;DHT22;29263;48.172;11.484;2023-11-21T05:50:52;6.80;99.90
43665;DHT22;29263;48.172;11.484;2023-11-21T05:53:18;6.80;99.90
43665;DHT22;29263;48.172;11.484;2023-11-21T05:55:44;6.80;99.90
43665;DHT22;29263;48.172;11.484;2023-11-21T05:58:09;6.70;99.90
43665;DHT22;29263;48.172;11.484;2023-11-21T06:00:36;6.70;99.90
43665;DHT22;29263;48.172;11.484;2023-11-21T06:03:01;6.70;99.90
43665;DHT22;29263;48.172;11.484;2023-11-21T06:05:28;6.70;99.90
43665;DHT22;29263;48.172;11.484;2023-11-21T06:07:54;6.70;99.90
43665;DHT22;29263;48.172;11.484;2023-11-21T06:10:24;6.70;99.90
43665;DHT22;29263;48.172;11.484;2023-11-21T06:12:50;6.70;99.90
43665;DHT22;29263;48.172;11.484;2023-11-21T06:15:16;6.70;99.90
43665;DHT22;29263;48.172;11.484;2023-11-21T06:17:44;6.70;99.90
43665;DHT22;29263;48.172;11.484;2023-11-21T06:20:14;6.80;99.90
43665;DHT22;29263;48.172;11.484;2023-11-21T06:22:46;6.80;99.90
43665;DHT22;29263;48.172;11.484;2023-11-21T06:25:12;6.70;99.90
43665;DHT22;29263;48.172;11.484;2023-11-21T06:27:40;6.80;99.90
43665;DHT22;29263;48.172;11.484;2023-11-21T06:30:06;6.80;99.90
43665;DHT22;29263;48.172;11.484;2023-11-21T06:32:34;6.80;99.90
43665;DHT22;29263;48.172;11.484;2023-11-21T06:35:04;6.90;99.90
43665;DHT22;29263;48.172;11.484;2023-11-21T06:37:31;6.90;99.90
43665;DHT22;29263;48.172;11.484;2023-11-21T06:39:58;6.90;99.90
43665;DHT22;29263;48.172;11.484;2023-11-21T06:42:25;6.80;99.90
43665;DHT22;29263;48.172;11.484;2023-11-21T06:44:51;6.90;99.90
43665;DHT22;29263;48.172;11.484;2023-11-21T06:47:17;6.80;99.90
43665;DHT22;29263;48.172;11.484;2023-11-21T06:49:43;6.80;99.90
43665;DHT22;29263;48.172;11.484;2023-11-21T06:52:09;6.80;99.90
43665;DHT22;29263;48.172;11.484;2023-11-21T06:54:36;6.80;99.90
43665;DHT22;29263;48.172;11.484;2023-11-21T06:57:02;6.80;99.90
43665;DHT22;29263;48.172;11.484;2023-11-21T06:59:31;6.90;99.90
43665;DHT22;29263;48.172;11.484;2023-11-21T07:01:57;6.90;99.90
43665;DHT22;29263;48.172;11.484;2023-11-21T07:04:23;6.90;99.90
43665;DHT22;29263;48.172;11.484;2023-11-21T07:06:49;6.90;99.90
43665;DHT22;29263;48.172;11.484;2023-11-21T07:09:15;6.90;99.90
43665;DHT22;29263;48.172;11.484;2023-11-21T07:11:41;6.90;99.90
43665;DHT22;29263;48.172;11.484;2023-11-21T07:14:07;6.90;99.90
43665;DHT22;29263;48.172;11.484;2023-11-21T07:16:36;6.90;99.90
43665;DHT22;29263;48.172;11.484;2023-11-21T07:19:05;6.90;99.90
43665;DHT22;29263;48.172;11.484;2023-11-21T07:21:34;6.90;99.90
43665;DHT22;29263;48.172;11.484;2023-11-21T07:24:03;6.90;99.90
43665;DHT22;29263;48.172;11.484;2023-11-21T07:26:30;6.90;99.90
43665;DHT22;29263;48.172;11.484;2023-11-21T07:28:56;6.90;99.90
43665;DHT22;29263;48.172;11.484;2023-11-21T07:31:22;6.90;99.90
43665;DHT22;29263;48.172;11.484;2023-11-21T07:33:48;6.90;99.90
43665;DHT22;29263;48.172;11.484;2023-11-21T07:36:14;6.90;99.90
43665;DHT22;29263;48.172;11.484;2023-11-21T07:38:41;7.00;99.90
43665;DHT22;29263;48.172;11.484;2023-11-21T07:41:07;7.00;99.90
43665;DHT22;29263;48.172;11.484;2023-11-21T07:43:35;7.00;99.90
43665;DHT22;29263;48.172;11.484;2023-11-21T07:46:02;7.10;99.90
43665;DHT22;29263;48.172;11.484;2023-11-21T07:48:33;7.10;99.90
43665;DHT22;29263;48.172;11.484;2023-11-21T07:51:00;7.20;99.90
43665;DHT22;29263;48.172;11.484;2023-11-21T07:53:26;7.20;99.90
43665;DHT22;29263;48.172;11.484;2023-11-21T07:55:54;7.20;99.90
43665;DHT22;29263;48.172;11.484;2023-11-21T07:58:20;7.20;99.90
43665;DHT22;29263;48.172;11.484;2023-11-21T08:00:46;7.20;99.90
43665;DHT22;29263;48.172;11.484;2023-11-21T08:03:13;7.20;99.90
43665;DHT22;29263;48.172;11.484;2023-11-21T08:05:39;7.20;99.90
43665;DHT22;29263;48.172;11.484;2023-11-21T08:08:05;7.20;99.90
43665;DHT22;29263;48.172;11.484;2023-11-21T08:10:31;7.20;99.90
43665;DHT22;29263;48.172;11.484;2023-11-21T08:12:56;7.10;99.90
43665;DHT22;29263;48.172;11.484;2023-11-21T08:15:22;7.20;99.90
43665;DHT22;29263;48.172;11.484;2023-11-21T08:17:48;7.20;99.90
43665;DHT22;29263;48.172;11.484;2023-11-21T08:20:14;7.30;99.90
43665;DHT22;29263;48.172;11.484;2023-11-21T08:22:44;7.30;99.90
43665;DHT22;29263;48.172;11.484;2023-11-21T08:25:09;7.40;99.90
43665;DHT22;29263;48.172;11.484;2023-11-21T08:27:35;7.40;99.90
43665;DHT22;29263;48.172;11.484;2023-11-21T08:30:02;7.50;99.90
43665;DHT22;29263;48.172;11.484;2023-11-21T08:32:29;7.50;99.90
43665;DHT22;29263;48.172;11.484;2023-11-21T08:34:57;7.50;99.90
43665;DHT22;29263;48.172;11.484;2023-11-21T08:37:23;7.50;99.90
43665;DHT22;29263;48.172;11.484;2023-11-21T08:39:49;7.60;99.90
43665;DHT22;29263;48.172;11.484;2023-11-21T08:42:15;7.60;99.90
43665;DHT22;29263;48.172;11.484;2023-11-21T08:44:41;7.60;99.90
43665;DHT22;29263;48.172;11.484;2023-11-21T08:47:06;7.60;99.90
43665;DHT22;29263;48.172;11.484;2023-11-21T08:49:32;7.60;99.90
43665;DHT22;29263;48.172;11.484;2023-11-21T08:51:58;7.60;99.90
43665;DHT22;29263;48.172;11.484;2023-11-21T08:54:25;7.60;99.90
43665;DHT22;29263;48.172;11.484;2023-11-21T08:56:54;7.60;99.90
43665;DHT22;29263;48.172;11.484;2023-11-21T08:59:21;7.60;99.90
43665;DHT22;29263;48.172;11.484;2023-11-21T09:01:47;7.60;99.90
43665;DHT22;29263;48.172;11.484;2023-11-21T09:04:13;7.70;99.90
43665;DHT22;29263;48.172;11.484;2023-11-21T09:06:39;7.70;99.90
43665;DHT22;29263;48.172;11.484;2023-11-21T09:09:06;7.70;99.90
43665;DHT22;29263;48.172;11.484;2023-11-21T09:11:32;7.70;99.90
43665;DHT22;29263;48.172;11.484;2023-11-21T09:14:00;7.80;99.90
43665;DHT22;29263;48.172;11.484;2023-11-21T09:16:26;7.80;99.90
43665;DHT22;29263;48.172;11.484;2023-11-21T09:18:51;7.90;99.90
43665;DHT22;29263;48.172;11.484;2023-11-21T09:21:17;7.90;99.90
43665;DHT22;29263;48.172;11.484;2023-11-21T09:23:44;7.90;99.90
43665;DHT22;29263;48.172;11.484;2023-11-21T09:26:10;7.90;99.90
43665;DHT22;29263;48.172;11.484;2023-11-21T09:28:36;8.00;99.90
43665;DHT22;29263;48.172;11.484;2023-11-21T09:31:06;8.00;99.90
43665;DHT22;29263;48.172;11.484;2023-11-21T09:33:34;8.10;99.90
43665;DHT22;29263;48.172;11.484;2023-11-21T09:36:00;8.10;99.90
43665;DHT22;29263;48.172;11.484;2023-11-21T09:38:26;8.20;99.90
43665;DHT22;29263;48.172;11.484;2023-11-21T09:40:54;8.30;99.90
43665;DHT22;29263;48.172;11.484;2023-11-21T09:43:20;8.30;99.90
43665;DHT22;29263;48.172;11.484;2023-11-21T09:45:52;8.40;99.90
43665;DHT22;29263;48.172;11.484;2023-11-21T09:48:20;8.50;99.90
43665;DHT22;29263;48.172;11.484;2023-11-21T09:50:47;8.50;99.90
43665;DHT22;29263;48.172;11.484;2023-11-21T09:53:20;8.50;99.90
43665;DHT22;29263;48.172;11.484;2023-11-21T09:55:53;8.60;99.90
43665;DHT22;29263;48.172;11.484;2023-11-21T09:58:20;8.70;99.90
43665;DHT22;29263;48.172;11.484;2023-11-21T10:00:48;8.70;99.90
43665;DHT22;29263;48.172;11.484;2023-11-21T10:03:15;8.70;99.90
43665;DHT22;29263;48.172;11.484;2023-11-21T10:05:45;8.70;99.90
43665;DHT22;29263;48.172;11.484;2023-11-21T10:08:15;8.70;99.90
43665;DHT22;29263;48.172;11.484;2023-11-21T10:10:46;8.70;99.90
43665;DHT22;29263;48.172;11.484;2023-11-21T10:13:13;8.80;99.90
43665;DHT22;29263;48.172;11.484;2023-11-21T10:15:42;8.70;99.90
43665;DHT22;29263;48.172;11.484;2023-11-21T10:18:14;8.70;99.90
43665;DHT22;29263;48.172;11.484;2023-11-21T10:20:40;8.70;99.90
43665;DHT22;29263;48.172;11.484;2023-11-21T10:23:07;8.70;99.90
43665;DHT22;29263;48.172;11.484;2023-11-21T10:25:36;8.80;99.90
43665;DHT22;29263;48.172;11.484;2023-11-21T10:28:03;8.80;99.90
43665;DHT22;29263;48.172;11.484;2023-11-21T10:30:36;8.90;99.90
43665;DHT22;29263;48.172;11.484;2023-11-21T10:33:06;8.90;99.90
43665;DHT22;29263;48.172;11.484;2023-11-21T10:35:45;9.00;99.90
43665;DHT22;29263;48.172;11.484;2023-11-21T10:38:17;9.00;99.90
43665;DHT22;29263;48.172;11.484;2023-11-21T10:40:44;8.90;99.90
43665;DHT22;29263;48.172;11.484;2023-11-21T10:43:11;8.90;99.90
43665;DHT22;29263;48.172;11.484;2023-11-21T10:45:38;8.80;99.90
43665;DHT22;29263;48.172;11.484;2023-11-21T10:48:08;8.80;99.90
43665;DHT22;29263;48.172;11.484;2023-11-21T10:50:35;8.70;99.90
43665;DHT22;29263;48.172;11.484;2023-11-21T10:53:04;8.80;99.90
43665;DHT22;29263;48.172;11.484;2023-11-21T10:55:31;8.90;99.90
43665;DHT22;29263;48.172;11.484;2023-11-21T10:57:59;9.00;99.90
43665;DHT22;29263;48.172;11.484;2023-11-21T11:00:28;9.00;99.90
43665;DHT22;29263;48.172;11.484;2023-11-21T11:02:54;9.20;99.90
43665;DHT22;29263;48.172;11.484;2023-11-21T11:05:22;9.20;99.90
43665;DHT22;29263;48.172;11.484;2023-11-21T11:07:51;9.40;99.90
43665;DHT22;29263;48.172;11.484;2023-11-21T11:10:21;9.50;99.90
43665;DHT22;29263;48.172;11.484;2023-11-21T11:12:48;9.60;99.90
43665;DHT22;29263;48.172;11.484;2023-11-21T11:15:16;9.60;99.90
43665;DHT22;29263;48.172;11.484;2023-11-21T11:17:42;9.60;99.90
43665;DHT22;29263;48.172;11.484;2023-11-21T11:20:12;9.50;99.90
43665;DHT22;29263;48.172;11.484;2023-11-21T11:28:15;9.50;99.90
43665;DHT22;29263;48.172;11.484;2023-11-21T11:33:31;9.40;99.90
43665;DHT22;29263;48.172;11.484;2023-11-21T11:38:51;9.40;99.90
43665;DHT22;29263;48.172;11.484;2023-11-21T11:41:29;9.40;99.90
43665;DHT22;29263;48.172;11.484;2023-11-21T11:43:57;9.40;99.90
43665;DHT22;29263;48.172;11.484;2023-11-21T11:46:41;9.40;99.90
43665;DHT22;29263;48.172;11.484;2023-11-21T11:49:07;9.30;99.90
43665;DHT22;29263;48.172;11.484;2023-11-21T11:51:33;9.40;99.90
43665;DHT22;29263;48.172;11.484;2023-11-21T11:54:01;9.40;99.90
43665;DHT22;29263;48.172;11.484;2023-11-21T11:56:33;9.40;99.90
43665;DHT22;29263;48.172;11.484;2023-11-21T11:59:04;9.50;99.90
43665;DHT22;29263;48.172;11.484;2023-11-21T12:01:32;9.50;99.90
43665;DHT22;29263;48.172;11.484;2023-11-21T12:06:41;9.50;99.90
43665;DHT22;29263;48.172;11.484;2023-11-21T12:09:09;9.60;99.90
43665;DHT22;29263;48.172;11.484;2023-11-21T12:11:41;9.70;99.90
43665;DHT22;29263;48.172;11.484;2023-11-21T12:14:09;9.70;99.90
43665;DHT22;29263;48.172;11.484;2023-11-21T12:16:35;9.70;99.90
43665;DHT22;29263;48.172;11.484;2023-11-21T12:19:00;9.60;99.90
43665;DHT22;29263;48.172;11.484;2023-11-21T12:21:27;9.60;99.90
43665;DHT22;29263;48.172;11.484;2023-11-21T12:23:53;9.60;99.90
43665;DHT22;29263;48.172;11.484;2023-11-21T12:26:18;9.60;99.90
43665;DHT22;29263;48.172;11.484;2023-11-21T12:28:52;9.60;99.90
43665;DHT22;29263;48.172;11.484;2023-11-21T12:31:21;9.50;99.90
43665;DHT22;29263;48.172;11.484;2023-11-21T12:33:47;9.40;99.90
43665;DHT22;29263;48.172;11.484;2023-11-21T12:36:13;9.30;99.90
43665;DHT22;29263;48.172;11.484;2023-11-21T12:38:38;9.20;99.90
43665;DHT22;29263;48.172;11.484;2023-11-21T12:41:05;9.10;99.90
43665;DHT22;29263;48.172;11.484;2023-11-21T12:43:32;9.00;99.90
43665;DHT22;29263;48.172;11.484;2023-11-21T12:46:07;9.00;99.90
43665;DHT22;29263;48.172;11.484;2023-11-21T12:48:37;9.00;99.90
43665;DHT22;29263;48.172;11.484;2023-11-21T12:51:05;9.10;99.90
43665;DHT22;29263;48.172;11.484;2023-11-21T12:53:32;9.20;99.90
43665;DHT22;29263;48.172;11.484;2023-11-21T12:56:07;9.20;99.90
43665;DHT22;29263;48.172;11.484;2023-11-21T12:58:35;9.30;99.90
43665;DHT22;29263;48.172;11.484;2023-11-21T13:01:01;9.30;99.90
43665;DHT22;29263;48.172;11.484;2023-11-21T13:03:30;9.40;99.90
43665;DHT22;29263;48.172;11.484;2023-11-21T13:05:56;9.40;99.90
43665;DHT22;29263;48.172;11.484;2023-11-21T13:08:24;9.50;99.90
43665;DHT22;29263;48.172;11.484;2023-11-21T13:10:53;9.50;99.90
43665;DHT22;29263;48.172;11.484;2023-11-21T13:13:20;9.50;99.90
43665;DHT22;29263;48.172;11.484;2023-11-21T13:15:50;9.50;99.90
43665;DHT22;29263;48.172;11.484;2023-11-21T13:18:16;9.40;99.90
43665;DHT22;29263;48.172;11.484;2023-11-21T13:20:42;9.50;99.90
43665;DHT22;29263;48.172;11.484;2023-11-21T13:23:09;9.40;99.90
43665;DHT22;29263;48.172;11.484;2023-11-21T13:25:38;9.50;99.90
43665;DHT22;29263;48.172;11.484;2023-11-21T13:28:06;9.40;99.90
43665;DHT22;29263;48.172;11.484;2023-11-21T13:30:32;9.40;99.90
43665;DHT22;29263;48.172;11.484;2023-11-21T13:33:02;9.40;99.90
43665;DHT22;29263;48.172;11.484;2023-11-21T13:35:28;9.40;99.90
43665;DHT22;29263;48.172;11.484;2023-11-21T13:38:07;9.30;99.90
43665;DHT22;29263;48.172;11.484;2023-11-21T13:40:33;9.00;99.90
43665;DHT22;29263;48.172;11.484;2023-11-21T13:43:05;8.90;99.90
43665;DHT22;29263;48.172;11.484;2023-11-21T13:45:35;8.70;99.90
43665;DHT22;29263;48.172;11.484;2023-11-21T13:48:02;8.60;99.90
43665;DHT22;29263;48.172;11.484;2023-11-21T13:50:27;8.50;99.90
43665;DHT22;29263;48.172;11.484;2023-11-21T13:53:02;8.40;99.90
43665;DHT22;29263;48.172;11.484;2023-11-21T13:55:42;8.30;99.90
43665;DHT22;29263;48.172;11.484;2023-11-21T13:58:07;8.30;99.90
43665;DHT22;29263;48.172;11.484;2023-11-21T14:00:37;8.20;99.90
43665;DHT22;29263;48.172;11.484;2023-11-21T14:03:12;8.10;99.90
43665;DHT22;29263;48.172;11.484;2023-11-21T14:05:48;8.10;99.90
43665;DHT22;29263;48.172;11.484;2023-11-21T14:08:20;8.10;99.90
43665;DHT22;29263;48.172;11.484;2023-11-21T14:10:49;8.10;99.90
43665;DHT22;29263;48.172;11.484;2023-11-21T14:13:23;8.00;99.90
43665;DHT22;29263;48.172;11.484;2023-11-21T14:15:50;8.00;99.90
43665;DHT22;29263;48.172;11.484;2023-11-21T14:18:19;8.00;99.90
43665;DHT22;29263;48.172;11.484;2023-11-21T14:20:52;7.90;99.90
43665;DHT22;29263;48.172;11.484;2023-11-21T14:23:18;7.90;99.90
43665;DHT22;29263;48.172;11.484;2023-11-21T14:25:44;7.80;99.90
43665;DHT22;29263;48.172;11.484;2023-11-21T14:28:09;7.70;99.90
43665;DHT22;29263;48.172;11.484;2023-11-21T14:30:37;7.70;99.90
43665;DHT22;29263;48.172;11.484;2023-11-21T14:33:05;7.60;99.90
43665;DHT22;29263;48.172;11.484;2023-11-21T14:35:31;7.70;99.90
43665;DHT22;29263;48.172;11.484;2023-11-21T14:37:59;7.70;99.90
43665;DHT22;29263;48.172;11.484;2023-11-21T14:40:26;7.60;99.90
43665;DHT22;29263;48.172;11.484;2023-11-21T14:42:53;7.60;99.90
43665;DHT22;29263;48.172;11.484;2023-11-21T14:45:19;7.50;99.90
43665;DHT22;29263;48.172;11.484;2023-11-21T14:47:48;7.50;99.90
43665;DHT22;29263;48.172;11.484;2023-11-21T14:50:30;7.60;99.90
43665;DHT22;29263;48.172;11.484;2023-11-21T14:53:15;7.50;99.90
43665;DHT22;29263;48.172;11.484;2023-11-21T14:55:41;7.40;99.90
43665;DHT22;29263;48.172;11.484;2023-11-21T14:58:16;7.40;99.90
43665;DHT22;29263;48.172;11.484;2023-11-21T15:00:49;7.40;99.90
43665;DHT22;29263;48.172;11.484;2023-11-21T15:03:17;7.50;99.90
43665;DHT22;29263;48.172;11.484;2023-11-21T15:06:02;7.50;99.90
43665;DHT22;29263;48.172;11.484;2023-11-21T15:08:55;7.50;99.90
43665;DHT22;29263;48.172;11.484;2023-11-21T15:11:34;7.50;99.90
43665;DHT22;29263;48.172;11.484;2023-11-21T15:14:00;7.40;99.90
43665;DHT22;29263;48.172;11.484;2023-11-21T15:16:26;7.40;99.90
43665;DHT22;29263;48.172;11.484;2023-11-21T15:18:54;7.50;99.90
43665;DHT22;29263;48.172;11.484;2023-11-21T15:21:20;7.50;99.90
43665;DHT22;29263;48.172;11.484;2023-11-21T15:23:47;7.50;99.90
43665;DHT22;29263;48.172;11.484;2023-11-21T15:26:13;7.40;99.90
43665;DHT22;29263;48.172;11.484;2023-11-21T15:28:39;7.40;99.90
43665;DHT22;29263;48.172;11.484;2023-11-21T15:31:04;7.40;99.90
43665;DHT22;29263;48.172;11.484;2023-11-21T15:33:30;7.60;99.90
43665;DHT22;29263;48.172;11.484;2023-11-21T15:35:56;7.60;99.90
43665;DHT22;29263;48.172;11.484;2023-11-21T15:38:23;7.60;99.90
43665;DHT22;29263;48.172;11.484;2023-11-21T15:40:49;7.60;99.90
43665;DHT22;29263;48.172;11.484;2023-11-21T15:43:15;7.50;99.90
43665;DHT22;29263;48.172;11.484;2023-11-21T15:45:41;7.50;99.90